Time;durP1;ratioP1;P1;durP2;ratioP2;P2;SDS_P1;SDS_P2;PMS_P1;PMS_P2;Temp;Humidity;BMP_temperature;BMP_pressure;BME280_temperature;BME280_humidity;BME280_pressure;Samples;Min_cycle;Max_cycle;Signal;HPM_P1;HPM_P2
2021/04/15 00:01:05;;;;;;;8.15;5.40;;;;;;;7.15;57.52;100283.41;4477320;32;35474;-88
2021/04/15 00:03:33;;;;;;;9.52;4.50;;;;;;;7.16;57.36;100282.50;4474080;32;35766;-87
2021/04/15 00:06:11;;;;;;;6.45;4.35;;;;;;;7.39;56.13;100276.72;4461759;32;33900;-87
2021/04/15 00:08:39;;;;;;;6.37;5.00;;;;;;;7.36;56.22;100277.69;4475605;32;34056;-87
2021/04/15 00:11:07;;;;;;;8.48;4.87;;;;;;;7.36;55.93;100276.81;4467875;32;33513;-87
2021/04/15 00:13:38;;;;;;;6.70;4.72;;;;;;;7.30;56.01;100272.53;4480563;32;33679;-87
2021/04/15 00:16:06;;;;;;;9.30;4.28;;;;;;;7.32;56.24;100275.16;4475679;32;34462;-87
2021/04/15 00:18:35;;;;;;;8.25;4.53;;;;;;;7.11;57.57;100265.97;4470879;32;33252;-87
2021/04/15 00:21:04;;;;;;;6.18;4.30;;;;;;;7.14;57.01;100265.94;4471285;32;34562;-88
2021/04/15 00:23:32;;;;;;;7.03;4.85;;;;;;;7.11;57.47;100266.84;4457442;32;34938;-89
2021/04/15 00:26:05;;;;;;;8.60;4.93;;;;;;;7.16;57.17;100269.38;4471670;32;33988;-88
2021/04/15 00:28:33;;;;;;;10.02;5.05;;;;;;;7.16;57.54;100264.97;4469673;32;33158;-88
2021/04/15 00:31:00;;;;;;;10.63;4.97;;;;;;;7.40;56.15;100257.44;4477572;32;34724;-88
2021/04/15 00:33:28;;;;;;;5.22;4.18;;;;;;;7.12;57.06;100257.19;4471128;32;35725;-88
2021/04/15 00:35:57;;;;;;;7.32;5.60;;;;;;;7.07;57.94;100261.69;4458312;32;33874;-88
2021/04/15 00:38:37;;;;;;;7.05;4.68;;;;;;;7.30;56.80;100262.03;4467500;32;34183;-88
2021/04/15 00:41:09;;;;;;;7.28;5.37;;;;;;;7.04;58.01;100260.00;4471436;32;34234;-87
2021/04/15 00:43:39;;;;;;;12.05;5.05;;;;;;;7.40;56.45;100257.44;4472518;32;33387;-88
2021/04/15 00:46:31;;;;;;;8.20;4.70;;;;;;;7.35;56.56;100257.53;4477775;32;33626;-88
2021/04/15 00:48:58;;;;;;;7.65;4.50;;;;;;;7.14;57.45;100261.53;4464352;32;33284;-87
2021/04/15 00:51:35;;;;;;;8.30;4.28;;;;;;;7.19;57.64;100259.66;4467152;32;36065;-87
2021/04/15 00:54:09;;;;;;;7.97;5.45;;;;;;;7.43;56.77;100263.50;4464042;32;32630;-87
2021/04/15 00:56:36;;;;;;;7.93;4.40;;;;;;;7.07;58.38;100264.31;4471351;32;33235;-87
2021/04/15 00:59:05;;;;;;;8.35;4.95;;;;;;;7.05;58.08;100264.34;4478569;32;34068;-87
2021/04/15 01:01:33;;;;;;;9.63;5.60;;;;;;;6.89;58.44;100265.59;4471207;32;33238;-86
2021/04/15 01:04:01;;;;;;;6.40;4.90;;;;;;;6.99;58.12;100269.75;4471144;32;33207;-86
2021/04/15 01:06:29;;;;;;;10.05;4.95;;;;;;;6.72;59.44;100273.81;4477565;32;33538;-88
2021/04/15 01:08:59;;;;;;;6.47;5.07;;;;;;;7.00;58.34;100258.34;4471109;32;34787;-88
2021/04/15 01:11:55;;;;;;;6.05;4.72;;;;;;;7.02;58.39;100260.94;4462022;32;34381;-89
2021/04/15 01:14:49;;;;;;;11.12;5.32;;;;;;;7.02;57.54;100260.94;4484524;32;34726;-89
2021/04/15 01:17:25;;;;;;;5.95;4.45;;;;;;;6.64;59.13;100259.97;4484737;32;33833;-88
2021/04/15 01:20:30;;;;;;;6.22;4.70;;;;;;;7.03;57.85;100260.91;4478358;32;33503;-89
2021/04/15 01:23:15;;;;;;;6.55;4.87;;;;;;;6.71;59.48;100261.59;4472235;32;35374;-88
2021/04/15 01:26:09;;;;;;;7.43;4.62;;;;;;;6.52;59.74;100262.84;4473498;32;33456;-89
2021/04/15 01:28:57;;;;;;;7.87;5.12;;;;;;;6.73;59.25;100256.31;4479076;32;33590;-88
2021/04/15 01:31:45;;;;;;;7.50;4.97;;;;;;;7.13;57.48;100249.31;4458662;32;33962;-88
2021/04/15 01:34:24;;;;;;;9.80;5.30;;;;;;;6.54;59.94;100255.81;4459862;32;33661;-88
2021/04/15 01:36:58;;;;;;;7.78;4.85;;;;;;;6.96;58.64;100245.31;4465664;32;33565;-88
2021/04/15 01:39:34;;;;;;;5.93;4.43;;;;;;;6.80;59.09;100244.78;4471072;32;34130;-89
2021/04/15 01:42:10;;;;;;;7.90;4.50;;;;;;;6.58;59.64;100245.22;4463863;32;33224;-89
2021/04/15 01:44:53;;;;;;;5.80;4.80;;;;;;;6.66;59.87;100248.56;4465676;32;33506;-89
2021/04/15 01:47:27;;;;;;;7.07;4.70;;;;;;;6.57;60.24;100237.41;4476900;32;33455;-88
2021/04/15 01:50:02;;;;;;;6.87;4.50;;;;;;;7.08;57.98;100235.41;4471265;32;35131;-90
2021/04/15 01:52:31;;;;;;;8.52;5.40;;;;;;;7.02;58.18;100234.66;4465170;32;32753;-89
2021/04/15 01:55:25;;;;;;;6.50;4.55;;;;;;;6.70;59.89;100241.50;4463171;32;34879;-89
2021/04/15 01:58:17;;;;;;;7.53;4.87;;;;;;;6.93;58.62;100236.63;4467078;32;34528;-89
2021/04/15 02:00:48;;;;;;;7.85;5.70;;;;;;;6.72;59.64;100237.06;4475468;32;33773;-87
2021/04/15 02:03:24;;;;;;;6.87;4.37;;;;;;;6.57;60.58;100237.41;4479400;32;33737;-87
2021/04/15 02:05:57;;;;;;;9.48;5.85;;;;;;;6.71;59.57;100232.72;4475321;32;34291;-86
2021/04/15 02:08:27;;;;;;;8.73;5.75;;;;;;;6.84;59.25;100242.06;4463227;32;33955;-86
2021/04/15 02:10:57;;;;;;;8.73;5.57;;;;;;;6.81;59.39;100236.00;4476971;32;33617;-87
2021/04/15 02:13:26;;;;;;;12.02;5.75;;;;;;;6.85;58.99;100232.44;4470295;32;34460;-86
2021/04/15 02:15:59;;;;;;;5.90;4.85;;;;;;;6.33;61.15;100239.59;4470702;32;33686;-87
2021/04/15 02:18:35;;;;;;;7.68;5.10;;;;;;;6.60;60.33;100242.59;4476035;32;34329;-88
2021/04/15 02:21:11;;;;;;;7.72;5.15;;;;;;;6.46;60.88;100239.34;4472397;32;35201;-88
2021/04/15 02:23:44;;;;;;;10.65;5.97;;;;;;;6.15;62.15;100237.31;4476392;32;34230;-90
2021/04/15 02:26:15;;;;;;;6.97;5.45;;;;;;;6.60;60.21;100232.09;4454750;32;35374;-90
2021/04/15 02:28:44;;;;;;;7.18;4.72;;;;;;;6.56;60.62;100233.03;4464970;32;34633;-90
2021/04/15 02:31:15;;;;;;;10.95;5.97;;;;;;;6.21;61.85;100234.59;4477160;32;33679;-90
2021/04/15 02:33:51;;;;;;;9.27;5.28;;;;;;;6.79;59.73;100233.44;4470400;32;33775;-89
2021/04/15 02:36:20;;;;;;;8.15;5.57;;;;;;;6.80;59.67;100235.16;4469928;32;33837;-89
2021/04/15 02:39:10;;;;;;;7.62;4.65;;;;;;;6.63;60.22;100232.88;4454987;32;34573;-89
2021/04/15 02:41:39;;;;;;;9.55;5.90;;;;;;;6.94;59.44;100232.25;4463901;32;34718;-89
2021/04/15 02:44:11;;;;;;;6.68;5.00;;;;;;;6.93;59.47;100228.75;4478778;32;33011;-88
2021/04/15 02:46:45;;;;;;;8.10;4.97;;;;;;;7.02;58.83;100234.66;4457518;32;34689;-88
2021/04/15 02:49:15;;;;;;;7.18;5.43;;;;;;;6.68;60.11;100224.91;4470134;32;33825;-88
2021/04/15 02:52:05;;;;;;;6.22;5.20;;;;;;;6.47;61.19;100228.84;4469956;32;33926;-86
2021/04/15 02:54:53;;;;;;;5.75;4.93;;;;;;;6.39;61.19;100231.59;4461637;32;35010;-86
2021/04/15 02:57:24;;;;;;;7.30;4.80;;;;;;;6.51;60.91;100234.91;4473602;32;33392;-86
2021/04/15 02:59:59;;;;;;;8.20;5.43;;;;;;;6.66;60.53;100232.81;4463083;32;33374;-85
2021/04/15 03:02:31;;;;;;;5.97;4.60;;;;;;;6.67;60.26;100238.94;4469118;32;35400;-86
2021/04/15 03:05:07;;;;;;;7.87;5.37;;;;;;;6.59;60.24;100241.69;4475834;32;33085;-85
2021/04/15 03:07:37;;;;;;;6.05;5.43;;;;;;;6.33;61.45;100231.75;4459004;32;35813;-85
2021/04/15 03:10:08;;;;;;;7.53;5.50;;;;;;;6.20;62.05;100234.63;4479952;32;34859;-85
2021/04/15 03:12:42;;;;;;;5.65;5.10;;;;;;;6.53;60.99;100233.09;4478151;32;33791;-85
2021/04/15 03:15:13;;;;;;;7.00;5.07;;;;;;;6.47;61.36;100235.84;4470425;32;32700;-85
2021/04/15 03:17:44;;;;;;;6.40;5.10;;;;;;;6.63;60.60;100243.38;4469071;32;34223;-85
2021/04/15 03:20:17;;;;;;;8.80;6.10;;;;;;;6.53;60.83;100248.84;4468281;32;34167;-85
2021/04/15 03:22:53;;;;;;;6.55;5.28;;;;;;;6.25;61.95;100240.66;4471429;32;34947;-85
2021/04/15 03:25:22;;;;;;;6.68;5.78;;;;;;;6.33;61.78;100244.00;4480162;32;33241;-85
2021/04/15 03:27:59;;;;;;;8.02;5.30;;;;;;;6.52;60.83;100244.50;4457619;32;35227;-86
2021/04/15 03:30:32;;;;;;;8.82;5.30;;;;;;;6.43;61.72;100236.81;4463118;32;34360;-85
2021/04/15 03:33:38;;;;;;;11.68;6.95;;;;;;;6.46;61.13;100240.25;4463405;32;35777;-86
2021/04/15 03:36:21;;;;;;;9.25;6.03;;;;;;;6.54;60.64;100233.06;4481805;32;32618;-87
2021/04/15 03:39:08;;;;;;;7.37;5.37;;;;;;;6.36;61.45;100234.31;4479258;32;34208;-86
2021/04/15 03:41:42;;;;;;;10.98;5.97;;;;;;;6.52;61.02;100234.88;4464062;32;35941;-86
2021/04/15 03:44:16;;;;;;;8.25;6.03;;;;;;;6.54;60.72;100232.19;4469379;32;34208;-87
2021/04/15 03:47:00;;;;;;;8.48;5.80;;;;;;;6.47;60.96;100235.84;4459502;32;34196;-86
2021/04/15 03:49:35;;;;;;;7.75;6.60;;;;;;;6.42;61.15;100230.69;4470072;32;33999;-88
2021/04/15 03:52:28;;;;;;;10.40;6.90;;;;;;;6.39;61.41;100244.72;4484310;32;33820;-88
2021/04/15 03:55:22;;;;;;;11.00;6.37;;;;;;;6.32;61.60;100240.50;4445226;32;33946;-87
2021/04/15 03:57:55;;;;;;;9.70;6.22;;;;;;;6.15;62.26;100235.56;4464371;32;35526;-86
2021/04/15 04:00:38;;;;;;;9.52;6.87;;;;;;;6.57;60.61;100237.41;4478160;32;33496;-84
2021/04/15 04:03:17;;;;;;;9.50;5.97;;;;;;;6.26;61.71;100234.50;4471283;32;35069;-84
2021/04/15 04:05:49;;;;;;;8.52;6.82;;;;;;;6.37;61.53;100241.28;4479900;32;34479;-85
2021/04/15 04:08:33;;;;;;;10.50;7.18;;;;;;;6.57;60.43;100243.50;4478823;32;32916;-84
2021/04/15 04:11:01;;;;;;;12.05;7.45;;;;;;;6.61;60.35;100244.31;4469285;32;34092;-87
2021/04/15 04:13:36;;;;;;;12.23;7.85;;;;;;;6.35;61.27;100243.06;4471534;32;34218;-86
2021/04/15 04:16:27;;;;;;;9.13;7.65;;;;;;;6.01;62.61;100236.72;4478279;32;33791;-87
2021/04/15 04:19:10;;;;;;;10.85;6.80;;;;;;;6.20;62.10;100251.22;4468596;32;32943;-87
2021/04/15 04:22:00;;;;;;;13.18;8.20;;;;;;;6.00;62.51;100245.47;4479955;32;33688;-87
2021/04/15 04:24:49;;;;;;;9.30;6.43;;;;;;;6.24;61.50;100245.03;4483937;32;33506;-91
2021/04/15 04:27:26;;;;;;;10.35;7.03;;;;;;;6.32;61.26;100245.75;4475982;32;33277;-89
2021/04/15 04:30:33;;;;;;;8.60;7.05;;;;;;;6.33;61.40;100250.09;4453838;32;34404;-89
2021/04/15 04:33:04;;;;;;;8.27;6.47;;;;;;;6.05;62.21;100255.00;4407233;32;34283;-87
2021/04/15 04:35:40;;;;;;;7.82;6.80;;;;;;;6.43;60.87;100249.91;4406291;32;33373;-86
2021/04/15 04:38:09;;;;;;;9.77;6.93;;;;;;;6.50;60.78;100251.50;4448702;31;33468;-86
2021/04/15 04:40:41;;;;;;;14.43;7.95;;;;;;;6.37;61.13;100253.53;4473437;32;32641;-85
2021/04/15 04:43:17;;;;;;;12.98;9.05;;;;;;;6.19;62.20;100256.50;4473009;32;33626;-86
2021/04/15 04:45:45;;;;;;;11.60;7.62;;;;;;;6.59;60.33;100259.19;4474248;32;34413;-86
2021/04/15 04:48:25;;;;;;;10.18;7.35;;;;;;;6.53;60.55;100259.34;4461278;32;33321;-87
2021/04/15 04:51:02;;;;;;;9.48;7.00;;;;;;;6.25;61.61;100257.25;4472857;32;32585;-85
2021/04/15 04:53:33;;;;;;;9.32;6.82;;;;;;;6.54;60.77;100266.31;4462775;32;33381;-85
2021/04/15 04:56:08;;;;;;;12.88;7.05;;;;;;;6.51;61.20;100267.25;4461441;32;33430;-86
2021/04/15 04:58:36;;;;;;;10.88;7.55;;;;;;;6.57;60.80;100268.88;4481036;32;34402;-85
2021/04/15 05:01:06;;;;;;;14.38;7.68;;;;;;;6.81;59.65;100268.38;4475324;32;31316;-85
2021/04/15 05:03:34;;;;;;;9.75;6.57;;;;;;;6.68;60.60;100275.63;4472727;32;33605;-85
2021/04/15 05:06:08;;;;;;;10.98;6.75;;;;;;;6.78;59.74;100278.91;4474862;32;33843;-84
2021/04/15 05:09:00;;;;;;;10.70;7.20;;;;;;;6.68;60.11;100272.13;4453089;32;34026;-86
2021/04/15 05:11:32;;;;;;;18.05;10.18;;;;;;;6.81;59.66;100270.13;4476023;32;33875;-85
2021/04/15 05:14:00;;;;;;;9.52;7.15;;;;;;;6.68;60.21;100264.25;4475688;32;34096;-86
2021/04/15 05:16:34;;;;;;;11.65;7.55;;;;;;;6.75;59.92;100265.88;4473602;32;33379;-86
2021/04/15 05:19:02;;;;;;;10.63;6.68;;;;;;;6.79;59.71;100258.78;4473390;32;34173;-86
2021/04/15 05:21:31;;;;;;;11.15;6.45;;;;;;;6.69;59.62;100263.38;4472957;32;31117;-87
2021/04/15 05:24:22;;;;;;;9.20;5.87;;;;;;;6.49;60.84;100255.91;4465843;32;33787;-86
2021/04/15 05:26:50;;;;;;;8.05;6.18;;;;;;;6.51;60.61;100264.63;4461979;32;33385;-85
2021/04/15 05:29:27;;;;;;;10.35;6.35;;;;;;;6.53;61.29;100261.97;4460347;32;33556;-86
2021/04/15 05:31:55;;;;;;;7.18;5.55;;;;;;;6.86;59.44;100258.63;4476536;32;33088;-86
2021/04/15 05:34:30;;;;;;;10.00;5.72;;;;;;;6.81;59.14;100262.25;4466257;32;33933;-87
2021/04/15 05:37:07;;;;;;;8.55;5.53;;;;;;;6.73;59.25;100265.03;4462229;32;34313;-86
2021/04/15 05:39:36;;;;;;;8.38;5.22;;;;;;;6.65;59.82;100272.22;4477110;32;33356;-86
2021/04/15 05:42:11;;;;;;;7.97;5.62;;;;;;;6.70;59.56;100270.38;4461868;32;35348;-85
2021/04/15 05:44:42;;;;;;;8.98;5.40;;;;;;;6.47;59.81;100262.09;4463391;32;34490;-86
2021/04/15 05:47:22;;;;;;;7.35;5.43;;;;;;;6.62;59.65;100269.66;4459591;32;33475;-86
2021/04/15 05:49:56;;;;;;;11.05;5.78;;;;;;;6.56;60.00;100267.16;4462163;32;34830;-86
2021/04/15 05:52:41;;;;;;;13.80;6.35;;;;;;;6.64;59.56;100273.09;4455545;32;34089;-86
2021/04/15 05:55:11;;;;;;;7.45;5.55;;;;;;;6.55;59.92;100273.28;4464820;32;34624;-83
2021/04/15 05:57:41;;;;;;;9.77;6.47;;;;;;;6.67;59.78;100270.41;4459748;32;35237;-82
2021/04/15 06:00:11;;;;;;;10.35;6.37;;;;;;;6.99;59.22;100269.75;4460324;32;31569;-85
2021/04/15 06:02:50;;;;;;;8.70;5.62;;;;;;;6.80;59.67;100269.28;4463953;32;32982;-85
2021/04/15 06:05:25;;;;;;;7.75;5.47;;;;;;;6.78;60.17;100264.94;4443127;32;34523;-84
2021/04/15 06:07:56;;;;;;;7.97;5.45;;;;;;;7.02;58.19;100266.19;4443203;32;34445;-85
2021/04/15 06:10:26;;;;;;;8.88;5.70;;;;;;;6.83;59.54;100261.31;4469229;32;33886;-85
2021/04/15 06:13:38;;;;;;;7.20;5.12;;;;;;;7.06;57.76;100268.72;4469590;32;33124;-85
2021/04/15 06:16:08;;;;;;;6.82;5.72;;;;;;;6.85;58.49;100275.28;4405476;32;34584;-85
2021/04/15 06:18:37;;;;;;;8.18;5.35;;;;;;;6.96;58.71;100268.94;4460117;32;33785;-85
2021/04/15 06:21:12;;;;;;;7.85;5.22;;;;;;;7.30;57.13;100255.94;4460536;32;32969;-86
2021/04/15 06:23:43;;;;;;;6.90;4.87;;;;;;;7.00;58.56;100258.34;4459030;32;33803;-85
2021/04/15 06:26:27;;;;;;;7.35;4.68;;;;;;;7.47;56.70;100255.53;4471062;32;33598;-85
2021/04/15 06:29:02;;;;;;;12.75;5.37;;;;;;;7.42;56.77;100253.87;4457714;32;32899;-83
2021/04/15 06:31:43;;;;;;;7.93;5.75;;;;;;;7.23;58.15;100254.34;4475951;32;33200;-85
2021/04/15 06:34:12;;;;;;;6.30;5.15;;;;;;;7.31;56.44;100248.03;4464903;32;32928;-85
2021/04/15 06:36:45;;;;;;;6.53;5.12;;;;;;;7.22;56.99;100247.37;4463984;32;33594;-85
2021/04/15 06:39:27;;;;;;;5.70;4.70;;;;;;;7.25;57.80;100236.78;4477157;32;33584;-86
2021/04/15 06:42:01;;;;;;;7.43;5.43;;;;;;;7.53;56.87;100245.75;4480533;32;33715;-85
2021/04/15 06:44:52;;;;;;;8.52;4.80;;;;;;;7.16;58.18;100251.84;4467822;32;31206;-85
2021/04/15 06:47:20;;;;;;;9.00;4.80;;;;;;;7.37;57.42;100241.75;4474228;32;33612;-85
2021/04/15 06:50:02;;;;;;;8.52;5.15;;;;;;;7.56;56.96;100237.78;4474475;32;141625;-84
2021/04/15 06:52:34;;;;;;;9.20;4.75;;;;;;;7.63;56.96;100234.09;4452508;32;35485;-85
2021/04/15 06:55:31;;;;;;;8.18;5.57;;;;;;;7.26;59.19;100249.00;4471190;32;34198;-85
2021/04/15 06:58:27;;;;;;;8.00;4.72;;;;;;;7.69;56.13;100248.84;4471491;32;34378;-85
2021/04/15 07:01:14;;;;;;;7.85;5.10;;;;;;;7.78;56.16;100246.00;4463332;32;32979;-85
2021/04/15 07:03:59;;;;;;;6.25;4.80;;;;;;;7.86;55.79;100249.28;4463235;32;33884;-85
2021/04/15 07:06:43;;;;;;;6.72;4.68;;;;;;;7.67;57.27;100250.66;4462110;32;32832;-85
2021/04/15 07:09:38;;;;;;;6.97;4.25;;;;;;;7.73;55.86;100247.00;4462427;32;34142;-85
2021/04/15 07:12:47;;;;;;;6.00;5.07;;;;;;;7.72;56.36;100251.41;4474740;32;36430;-85
2021/04/15 07:15:24;;;;;;;9.02;5.12;;;;;;;7.75;56.37;100253.97;4479367;32;34602;-85
2021/04/15 07:18:05;;;;;;;8.00;5.75;;;;;;;7.83;56.29;100248.50;4458380;32;33990;-85
2021/04/15 07:20:39;;;;;;;10.20;5.95;;;;;;;7.62;57.26;100253.41;4470071;32;33653;-85
2021/04/15 07:23:44;;;;;;;9.25;5.37;;;;;;;7.99;56.18;100251.63;4458077;32;33478;-85
2021/04/15 07:26:45;;;;;;;6.35;4.60;;;;;;;8.20;55.16;100253.69;4459265;32;31056;-85
2021/04/15 07:29:28;;;;;;;5.68;4.05;;;;;;;8.45;54.74;100252.16;4473194;32;32791;-85
2021/04/15 07:32:14;;;;;;;;;;;;;;;8.34;54.38;100254.16;4460702;32;33834;-85
2021/04/15 07:35:17;;;;;;;11.73;5.50;;;;;;;8.28;54.64;100253.47;4459459;32;33197;-85
2021/04/15 07:37:53;;;;;;;;;;;;;;;8.09;55.90;100253.09;4462475;32;34348;-86
2021/04/15 07:40:48;;;;;;;7.85;4.47;;;;;;;8.34;54.61;100262.06;4473622;32;33074;-86
2021/04/15 07:43:43;;;;;;;7.87;5.82;;;;;;;8.41;54.24;100263.66;4475874;32;33111;-86
2021/04/15 07:46:14;;;;;;;6.28;4.47;;;;;;;8.28;54.92;100261.37;4472250;32;33303;-86
2021/04/15 07:49:07;;;;;;;6.30;4.80;;;;;;;8.30;54.90;100264.81;4472024;32;34818;-86
2021/04/15 07:51:40;;;;;;;5.68;4.20;;;;;;;8.32;53.89;100266.50;4474878;32;34879;-86
2021/04/15 07:54:46;;;;;;;7.18;4.43;;;;;;;8.24;54.94;100265.00;4475336;32;36862;-86
2021/04/15 07:57:41;;;;;;;6.62;4.12;;;;;;;8.32;54.92;100269.16;4476767;32;34627;-85
2021/04/15 08:00:09;;;;;;;6.72;4.60;;;;;;;8.40;53.36;100272.47;4480069;32;33297;-86
2021/04/15 08:02:58;;;;;;;7.90;4.93;;;;;;;8.34;54.33;100264.69;4461752;32;34971;-86
2021/04/15 08:05:51;;;;;;;7.47;4.43;;;;;;;8.31;54.98;100272.69;4471807;32;33547;-86
2021/04/15 08:08:33;;;;;;;6.60;5.00;;;;;;;8.58;55.00;100272.84;4481939;32;33629;-86
2021/04/15 08:11:29;;;;;;;7.15;4.97;;;;;;;8.68;55.59;100277.81;4481549;32;33365;-86
2021/04/15 08:14:02;;;;;;;6.68;4.82;;;;;;;8.87;52.65;100267.59;4473964;32;32082;-86
2021/04/15 08:17:04;;;;;;;7.37;4.30;;;;;;;8.61;54.92;100260.47;4475816;32;33428;-86
2021/04/15 08:19:37;;;;;;;7.05;4.80;;;;;;;8.49;54.77;100276.59;4482612;32;33720;-86
2021/04/15 08:22:32;;;;;;;6.10;4.07;;;;;;;8.92;53.19;100273.59;4462216;32;34946;-86
2021/04/15 08:25:08;;;;;;;7.90;4.72;;;;;;;8.70;53.28;100277.78;4476486;32;35151;-86
2021/04/15 08:27:41;;;;;;;6.43;4.72;;;;;;;8.52;54.30;100283.56;4466271;32;34765;-86
2021/04/15 08:30:34;;;;;;;8.15;5.32;;;;;;;8.85;53.49;100272.06;4479199;32;33718;-86
2021/04/15 08:33:21;;;;;;;6.65;4.65;;;;;;;9.11;52.42;100279.19;4482886;32;34251;-85
2021/04/15 08:36:13;;;;;;;5.93;4.55;;;;;;;8.69;54.01;100281.34;4465426;32;33229;-86
2021/04/15 08:38:54;;;;;;;7.00;4.57;;;;;;;9.06;53.41;100274.97;4481164;32;33776;-86
2021/04/15 08:42:11;;;;;;;12.52;4.95;;;;;;;9.23;53.18;100284.09;4475356;32;33644;-86
2021/04/15 08:45:28;;;;;;;6.70;4.45;;;;;;;9.03;53.81;100290.88;4447520;31;34670;-86
2021/04/15 08:48:20;;;;;;;5.05;4.00;;;;;;;9.20;51.49;100272.78;4449001;32;33779;-86
2021/04/15 08:51:17;;;;;;;6.37;4.20;;;;;;;8.79;53.14;100282.78;4458498;32;35011;-86
2021/04/15 08:54:12;;;;;;;6.43;4.40;;;;;;;8.90;53.09;100280.69;4457182;32;34750;-85
2021/04/15 08:56:52;;;;;;;6.22;4.40;;;;;;;9.12;53.24;100275.66;4458385;32;32925;-86
2021/04/15 08:59:33;;;;;;;6.62;4.95;;;;;;;9.02;54.16;100278.59;4463903;32;34020;-86
2021/04/15 09:02:47;;;;;;;10.45;4.85;;;;;;;8.24;56.28;100279.00;4457617;32;35107;-86
2021/04/15 09:05:44;;;;;;;7.32;4.43;;;;;;;8.64;55.04;100288.47;4473611;32;33396;-86
2021/04/15 09:08:21;;;;;;;5.25;4.18;;;;;;;8.50;55.39;100280.09;4429546;32;33238;-86
2021/04/15 09:10:56;;;;;;;6.32;4.97;;;;;;;8.89;54.40;100281.63;4480260;32;32815;-86
2021/04/15 09:13:40;;;;;;;6.55;4.72;;;;;;;9.32;52.50;100274.19;4463026;32;33807;-86
2021/04/15 09:16:20;;;;;;;6.05;4.20;;;;;;;9.23;54.04;100283.25;4475422;32;33787;-86
2021/04/15 09:19:11;;;;;;;6.30;4.75;;;;;;;9.62;51.73;100285.53;4467502;32;33622;-86
2021/04/15 09:21:55;;;;;;;7.35;4.47;;;;;;;9.33;51.77;100287.31;4475426;32;32816;-85
2021/04/15 09:24:44;;;;;;;6.22;4.75;;;;;;;9.55;52.03;100284.87;4475373;32;33355;-86
2021/04/15 09:27:23;;;;;;;9.40;4.50;;;;;;;9.39;51.84;100289.75;4449786;32;33057;-86
2021/04/15 09:30:20;;;;;;;6.05;4.35;;;;;;;9.73;50.52;100283.41;4464013;32;34018;-86
2021/04/15 09:32:58;;;;;;;6.20;4.25;;;;;;;9.52;50.19;100279.69;4458930;32;33017;-86
2021/04/15 09:36:03;;;;;;;9.82;4.50;;;;;;;9.34;51.09;100289.03;4478503;32;34447;-86
2021/04/15 09:38:52;;;;;;;8.27;4.70;;;;;;;8.90;52.61;100287.75;4478124;32;34537;-86
2021/04/15 09:41:46;;;;;;;6.03;4.80;;;;;;;9.11;52.00;100284.47;4463770;32;34505;-86
2021/04/15 09:44:31;;;;;;;8.70;4.53;;;;;;;9.21;51.69;100285.06;4488122;31;32419;-86
2021/04/15 09:47:06;;;;;;;7.00;4.60;;;;;;;9.16;52.45;100276.41;4476257;32;33176;-86
2021/04/15 09:49:48;;;;;;;6.87;3.90;;;;;;;8.93;52.83;100291.16;4476431;32;33777;-86
2021/04/15 09:52:27;;;;;;;4.57;4.10;;;;;;;8.89;53.13;100281.63;4459366;32;34241;-86
2021/04/15 09:55:11;;;;;;;7.97;4.40;;;;;;;8.86;52.63;100280.84;4454258;32;34774;-86
2021/04/15 09:58:26;;;;;;;5.72;3.58;;;;;;;8.82;52.25;100273.91;4481778;32;33761;-87
2021/04/15 10:01:08;;;;;;;5.10;4.60;;;;;;;9.04;51.97;100277.66;4446248;32;33241;-86
2021/04/15 10:03:46;;;;;;;5.47;3.95;;;;;;;8.72;53.70;100270.69;4478457;32;33593;-85
2021/04/15 10:06:34;;;;;;;6.20;3.50;;;;;;;9.32;51.23;100275.06;4468325;32;33644;-86
2021/04/15 10:09:12;;;;;;;4.40;3.67;;;;;;;9.24;51.75;100269.16;4472104;32;33053;-86
2021/04/15 10:12:09;;;;;;;5.60;4.20;;;;;;;9.29;52.02;100269.88;4462174;32;33739;-86
2021/04/15 10:15:01;;;;;;;6.80;3.90;;;;;;;9.55;50.91;100262.94;4472647;32;33911;-86
2021/04/15 10:17:37;;;;;;;6.10;3.62;;;;;;;9.46;51.32;100256.19;4464262;32;32943;-86
2021/04/15 10:20:33;;;;;;;3.85;3.47;;;;;;;9.41;50.85;100256.31;4474855;32;35564;-86
2021/04/15 10:23:03;;;;;;;6.07;3.80;;;;;;;9.35;51.72;100250.37;4463612;32;36003;-86
2021/04/15 10:25:38;;;;;;;5.07;3.85;;;;;;;9.53;51.00;100254.19;4473141;32;33527;-85
2021/04/15 10:28:27;;;;;;;8.82;4.45;;;;;;;9.14;51.69;100258.03;4472658;32;33275;-86
2021/04/15 10:30:57;;;;;;;6.22;3.97;;;;;;;9.27;51.56;100262.94;4474020;32;35203;-85
2021/04/15 10:33:55;;;;;;;8.60;3.95;;;;;;;9.43;50.92;100258.91;4474241;32;33716;-86
2021/04/15 10:36:51;;;;;;;5.50;3.53;;;;;;;9.71;49.42;100249.19;4479231;32;34152;-85
2021/04/15 10:39:41;;;;;;;4.65;3.22;;;;;;;9.80;49.42;100242.75;4475016;32;33159;-85
2021/04/15 10:42:30;;;;;;;3.55;2.70;;;;;;;9.67;49.10;100251.97;4474925;32;34672;-85
2021/04/15 10:45:22;;;;;;;4.70;3.55;;;;;;;8.98;51.25;100256.78;4470803;32;33782;-85
2021/04/15 10:48:13;;;;;;;4.00;3.65;;;;;;;9.12;51.25;100259.88;4480269;32;33382;-86
2021/04/15 10:50:59;;;;;;;6.20;3.85;;;;;;;9.17;50.66;100251.81;4476631;32;32851;-85
2021/04/15 10:53:41;;;;;;;6.90;5.12;;;;;;;9.13;50.93;100244.91;4463260;32;35529;-85
2021/04/15 10:56:23;;;;;;;7.90;3.83;;;;;;;9.34;50.67;100244.22;4464319;32;33879;-85
2021/04/15 10:58:59;;;;;;;3.28;2.83;;;;;;;9.98;49.18;100236.84;4444966;32;33360;-85
2021/04/15 11:01:32;;;;;;;3.10;2.50;;;;;;;10.10;48.58;100234.69;4472654;32;34213;-85
2021/04/15 11:04:09;;;;;;;4.05;2.92;;;;;;;10.08;49.32;100233.91;4475369;32;33348;-85
2021/04/15 11:06:41;;;;;;;3.47;2.83;;;;;;;9.64;54.07;100241.53;4472063;32;34311;-86
2021/04/15 11:09:27;;;;;;;5.50;2.85;;;;;;;9.91;50.45;100239.75;4474546;32;34449;-85
2021/04/15 11:12:13;;;;;;;4.68;3.37;;;;;;;9.88;49.23;100245.13;4472276;32;33458;-86
2021/04/15 11:14:43;;;;;;;3.50;2.95;;;;;;;9.44;52.25;100258.84;4461387;32;34228;-85
2021/04/15 11:17:31;;;;;;;3.33;3.03;;;;;;;9.25;53.54;100262.97;4476082;32;33141;-86
2021/04/15 11:20:27;;;;;;;3.60;3.30;;;;;;;9.06;55.04;100261.81;4471978;32;35096;-86
2021/04/15 11:23:00;;;;;;;6.05;4.60;;;;;;;8.54;59.05;100263.31;4474428;32;32842;-86
2021/04/15 11:25:35;;;;;;;4.68;3.47;;;;;;;8.33;57.87;100257.72;4475620;32;35087;-85
2021/04/15 11:28:11;;;;;;;5.05;3.70;;;;;;;8.56;57.53;100264.16;4460370;32;33616;-85
2021/04/15 11:30:45;;;;;;;6.35;3.40;;;;;;;8.70;56.82;100254.09;4470884;32;33508;-85
2021/04/15 11:33:49;;;;;;;3.92;2.90;;;;;;;8.72;56.44;100254.91;4450285;32;34164;-85
2021/04/15 11:36:32;;;;;;;5.00;3.97;;;;;;;8.89;55.58;100257.06;4473264;32;32489;-85
2021/04/15 11:39:05;;;;;;;4.82;3.15;;;;;;;8.45;58.96;100257.41;4462951;32;32504;-85
2021/04/15 11:41:47;;;;;;;5.28;3.60;;;;;;;8.60;58.41;100253.50;4475557;32;33904;-86
2021/04/15 11:44:35;;;;;;;3.95;3.20;;;;;;;8.11;61.71;100243.41;4466736;31;34123;-85
2021/04/15 11:47:08;;;;;;;4.53;3.53;;;;;;;8.51;58.98;100239.72;4467118;32;34654;-84
2021/04/15 11:49:38;;;;;;;3.00;2.37;;;;;;;8.84;55.36;100249.28;4475681;32;35168;-85
2021/04/15 11:52:06;;;;;;;4.07;1.98;;;;;;;8.82;55.83;100260.75;4481464;32;34523;-85
2021/04/15 11:54:35;;;;;;;1.80;1.67;;;;;;;8.56;56.20;100249.22;4478891;32;31214;-86
2021/04/15 11:57:18;;;;;;;1.70;1.60;;;;;;;8.15;57.80;100250.31;4455592;32;33257;-85
2021/04/15 11:59:59;;;;;;;3.87;1.50;;;;;;;8.19;58.69;100247.56;4462385;32;35535;-85
2021/04/15 12:02:46;;;;;;;3.37;1.65;;;;;;;8.40;55.94;100246.16;4463356;32;34095;-85
2021/04/15 12:05:27;;;;;;;3.62;1.77;;;;;;;8.13;59.41;100245.09;4463331;32;35120;-85
2021/04/15 12:08:07;;;;;;;3.17;1.80;;;;;;;8.38;56.91;100245.31;4466189;32;33230;-85
2021/04/15 12:10:54;;;;;;;2.60;1.80;;;;;;;8.70;54.34;100241.78;4473205;32;33492;-85
2021/04/15 12:13:29;;;;;;;2.28;1.70;;;;;;;8.96;51.77;100237.50;4462861;32;35288;-85
2021/04/15 12:16:02;;;;;;;2.40;1.65;;;;;;;8.97;52.63;100236.59;4463855;32;33441;-87
2021/04/15 12:18:36;;;;;;;3.17;1.95;;;;;;;8.73;52.57;100235.56;4465993;32;34019;-87
2021/04/15 12:21:28;;;;;;;5.07;2.05;;;;;;;8.84;54.31;100230.84;4474066;32;32831;-87
2021/04/15 12:24:09;;;;;;;2.92;1.73;;;;;;;9.08;53.60;100233.66;4449285;32;32961;-88
2021/04/15 12:26:55;;;;;;;1.90;1.15;;;;;;;8.92;53.33;100239.38;4466665;32;33991;-88
2021/04/15 12:29:26;;;;;;;1.77;1.20;;;;;;;8.98;51.21;100228.66;4468180;32;33456;-87
2021/04/15 12:32:05;;;;;;;3.05;1.30;;;;;;;9.06;50.84;100238.94;4474473;32;35523;-88